createdAt,value
2022-12-19T00:01:06.829Z,91.30
2022-12-19T00:03:33.599Z,90.50
2022-12-19T00:06:06.171Z,90.19
2022-12-19T00:08:32.689Z,90.52
2022-12-19T00:11:00.335Z,90.48
2022-12-19T00:13:27.455Z,90.87
2022-12-19T00:16:00.423Z,91.29
2022-12-19T00:18:26.873Z,91.33
2022-12-19T00:21:00.461Z,90.82
2022-12-19T00:23:27.944Z,89.80
2022-12-19T00:25:54.311Z,90.60
2022-12-19T00:28:21.921Z,90.55
2022-12-19T00:30:48.244Z,91.15
2022-12-19T00:33:14.560Z,90.26
2022-12-19T00:35:40.945Z,90.85
2022-12-19T00:38:07.271Z,90.77
2022-12-19T00:40:33.641Z,90.65
2022-12-19T00:43:00.113Z,90.03
2022-12-19T00:45:27.024Z,89.67
2022-12-19T00:47:55.570Z,90.04
2022-12-19T00:50:21.990Z,90.30
2022-12-19T00:52:48.388Z,89.68
2022-12-19T00:55:18.689Z,89.88
2022-12-19T00:57:46.499Z,88.92
2022-12-19T01:00:13.122Z,90.07
2022-12-19T01:02:39.678Z,89.21
2022-12-19T01:05:06.399Z,89.50
2022-12-19T01:07:32.743Z,89.55
2022-12-19T01:09:59.147Z,90.01
2022-12-19T01:12:44.189Z,89.34
2022-12-19T01:15:10.710Z,89.03
2022-12-19T01:17:44.260Z,88.46
2022-12-19T01:20:11.755Z,88.39
2022-12-19T01:22:38.135Z,87.75
2022-12-19T01:25:05.258Z,87.75
2022-12-19T01:27:31.599Z,88.98
2022-12-19T01:29:58.022Z,88.59
2022-12-19T01:32:24.445Z,89.32
2022-12-19T01:34:50.871Z,89.04
2022-12-19T01:37:22.671Z,88.37
2022-12-19T01:39:49.148Z,89.58
2022-12-19T01:42:23.345Z,89.22
2022-12-19T01:45:05.442Z,88.67
2022-12-19T01:47:33.401Z,88.91
2022-12-19T01:50:01.556Z,89.00
2022-12-19T01:52:28.034Z,88.24
2022-12-19T01:54:54.351Z,88.06
2022-12-19T01:57:21.346Z,88.36
2022-12-19T01:59:56.730Z,87.96
2022-12-19T02:02:28.167Z,87.66
2022-12-19T02:04:54.935Z,88.09
2022-12-19T02:07:25.472Z,87.95
2022-12-19T02:09:57.229Z,87.03
2022-12-19T02:12:29.198Z,88.16
2022-12-19T02:15:02.628Z,88.81
2022-12-19T02:17:52.803Z,88.25
2022-12-19T02:20:38.177Z,87.88
2022-12-19T02:23:26.030Z,88.06
2022-12-19T02:25:58.493Z,87.92
2022-12-19T02:28:32.828Z,88.99
2022-12-19T02:31:02.152Z,88.00
2022-12-19T02:33:46.284Z,87.51
2022-12-19T02:36:18.675Z,87.93
2022-12-19T02:38:57.577Z,88.75
2022-12-19T02:41:29.368Z,89.07
2022-12-19T02:43:58.918Z,88.72
2022-12-19T02:46:26.537Z,88.04
2022-12-19T02:48:53.629Z,88.04
2022-12-19T02:51:20.076Z,87.80
2022-12-19T02:53:46.545Z,87.95
2022-12-19T02:56:20.304Z,88.37
2022-12-19T02:58:52.719Z,89.23
2022-12-19T03:01:25.825Z,89.18
2022-12-19T03:03:53.418Z,88.52
2022-12-19T03:06:19.819Z,88.60
2022-12-19T03:08:55.542Z,88.90
2022-12-19T03:11:22.917Z,89.67
2022-12-19T03:14:18.697Z,89.08
2022-12-19T03:16:45.365Z,88.12
2022-12-19T03:19:15.735Z,87.75
2022-12-19T03:21:46.661Z,88.43
2022-12-19T03:24:13.642Z,89.02
2022-12-19T03:26:57.836Z,88.37
2022-12-19T03:29:30.355Z,89.07
2022-12-19T03:31:57.902Z,88.19
2022-12-19T03:34:38.834Z,87.74
2022-12-19T03:37:06.136Z,87.53
2022-12-19T03:39:35.013Z,88.12
2022-12-19T03:42:21.681Z,88.63
2022-12-19T03:44:50.087Z,87.84
2022-12-19T03:47:16.612Z,87.13
2022-12-19T03:49:43.249Z,87.64
2022-12-19T03:52:12.743Z,88.25
2022-12-19T03:54:40.423Z,88.61
2022-12-19T03:57:09.562Z,88.30
2022-12-19T03:59:48.214Z,87.74
2022-12-19T04:02:16.417Z,88.46
2022-12-19T04:04:44.917Z,88.08
2022-12-19T04:07:12.763Z,88.43
2022-12-19T04:09:41.036Z,88.01
2022-12-19T04:12:10.204Z,87.33
2022-12-19T04:14:37.825Z,87.58
2022-12-19T04:17:15.604Z,86.92
2022-12-19T04:19:49.800Z,87.31
2022-12-19T04:22:31.852Z,87.98
2022-12-19T04:24:59.730Z,88.11
2022-12-19T04:27:27.133Z,88.49
2022-12-19T04:29:55.925Z,88.19
2022-12-19T04:32:23.553Z,86.94
2022-12-19T04:34:49.892Z,87.33
2022-12-19T04:37:16.732Z,87.85
2022-12-19T04:39:43.117Z,87.11
2022-12-19T04:42:09.711Z,87.90
2022-12-19T04:44:36.079Z,87.21
2022-12-19T04:47:02.394Z,86.61
2022-12-19T04:49:28.746Z,86.41
2022-12-19T04:51:55.134Z,85.38
2022-12-19T04:54:22.179Z,85.95
2022-12-19T04:56:48.616Z,86.60
2022-12-19T04:59:15.057Z,86.86
2022-12-19T05:01:41.566Z,86.08
2022-12-19T05:04:07.965Z,85.87
2022-12-19T05:06:34.305Z,84.98
2022-12-19T05:09:00.631Z,85.23
2022-12-19T05:11:27.000Z,85.47
2022-12-19T05:13:53.337Z,85.55
2022-12-19T05:16:19.755Z,85.58
2022-12-19T05:18:46.259Z,86.61
2022-12-19T05:21:12.935Z,85.92
2022-12-19T05:23:39.352Z,85.12
2022-12-19T05:26:06.397Z,85.25
2022-12-19T05:28:32.708Z,85.33
2022-12-19T05:31:06.316Z,85.58
2022-12-19T05:33:32.693Z,86.32
2022-12-19T05:35:59.136Z,86.39
2022-12-19T05:38:25.684Z,86.21
2022-12-19T05:40:52.074Z,85.39
2022-12-19T05:43:18.396Z,85.95
2022-12-19T05:45:44.719Z,86.77
2022-12-19T05:48:11.113Z,87.48
2022-12-19T05:50:37.443Z,86.52
2022-12-19T05:53:03.797Z,86.69
2022-12-19T05:55:30.256Z,86.32
2022-12-19T05:57:56.602Z,86.05
2022-12-19T06:00:22.939Z,85.77
2022-12-19T06:02:49.483Z,86.20
2022-12-19T06:05:17.135Z,85.53
2022-12-19T06:07:43.473Z,84.88
2022-12-19T06:10:09.847Z,85.83
2022-12-19T06:12:36.247Z,86.42
2022-12-19T06:15:02.573Z,85.52
2022-12-19T06:17:28.877Z,84.87
2022-12-19T06:19:55.173Z,85.57
2022-12-19T06:22:21.564Z,85.68
2022-12-19T06:24:47.873Z,85.57
2022-12-19T06:27:14.236Z,85.56
2022-12-19T06:29:40.598Z,86.67
2022-12-19T06:32:06.947Z,85.37
2022-12-19T06:35:02.850Z,85.93
2022-12-19T06:37:21.457Z,84.81
2022-12-19T06:39:47.802Z,84.48
2022-12-19T06:42:23.308Z,84.87
2022-12-19T06:44:54.114Z,85.00
2022-12-19T06:47:21.528Z,84.61
2022-12-19T06:49:48.670Z,84.79
2022-12-19T06:52:15.428Z,84.80
2022-12-19T06:54:42.462Z,84.76
2022-12-19T06:57:08.979Z,84.06
2022-12-19T06:59:35.352Z,83.81
2022-12-19T07:02:24.856Z,83.50
2022-12-19T07:04:55.193Z,84.25
2022-12-19T07:07:24.649Z,84.11
2022-12-19T07:09:51.172Z,83.85
2022-12-19T07:12:17.666Z,83.60
2022-12-19T07:14:46.730Z,84.42
2022-12-19T07:17:15.495Z,83.74
2022-12-19T07:19:42.223Z,83.30
2022-12-19T07:22:09.208Z,83.61
2022-12-19T07:24:36.154Z,83.02
2022-12-19T07:27:03.059Z,83.13
2022-12-19T07:29:29.487Z,83.01
2022-12-19T07:31:56.152Z,83.47
2022-12-19T07:34:22.559Z,83.51
2022-12-19T07:36:49.018Z,82.68
2022-12-19T07:39:15.396Z,83.66
2022-12-19T07:41:41.813Z,83.96
2022-12-19T07:44:08.672Z,82.46
2022-12-19T07:46:35.395Z,83.15
2022-12-19T07:49:01.816Z,82.48
2022-12-19T07:51:28.303Z,82.10
2022-12-19T07:53:54.631Z,81.81
2022-12-19T07:56:20.957Z,81.73
2022-12-19T07:58:47.348Z,82.75
2022-12-19T08:01:13.890Z,81.34
2022-12-19T08:03:40.335Z,81.11
2022-12-19T08:06:07.168Z,80.98
2022-12-19T08:08:34.157Z,80.81
2022-12-19T08:11:11.321Z,81.28
2022-12-19T08:13:42.037Z,80.67
2022-12-19T08:16:12.589Z,81.11
2022-12-19T08:18:39.013Z,81.19
2022-12-19T08:21:07.173Z,81.73
2022-12-19T08:23:33.610Z,80.78
2022-12-19T08:26:01.223Z,80.13
2022-12-19T08:28:27.777Z,81.31
2022-12-19T08:30:54.195Z,79.54
2022-12-19T08:33:20.542Z,78.40
2022-12-19T08:35:46.902Z,77.87
2022-12-19T08:38:13.369Z,76.91
2022-12-19T08:40:44.330Z,78.69
2022-12-19T08:43:13.497Z,78.91
2022-12-19T08:45:39.891Z,78.44
2022-12-19T08:48:07.454Z,79.40
2022-12-19T08:50:33.776Z,79.21
2022-12-19T08:53:00.224Z,78.69
2022-12-19T08:55:27.286Z,77.85
2022-12-19T08:57:55.737Z,77.04
2022-12-19T09:00:22.282Z,78.08
2022-12-19T09:02:50.168Z,76.73
2022-12-19T09:06:03.541Z,76.55
2022-12-19T09:08:03.125Z,76.75
2022-12-19T09:10:31.216Z,76.87
2022-12-19T09:12:58.153Z,78.26
2022-12-19T09:15:24.607Z,78.32
2022-12-19T09:17:50.941Z,77.01
2022-12-19T09:20:23.056Z,77.19
2022-12-19T09:22:49.880Z,78.86
2022-12-19T09:25:16.309Z,76.99
2022-12-19T09:28:25.128Z,77.38
2022-12-19T09:30:29.349Z,77.19
2022-12-19T09:32:57.391Z,76.67
2022-12-19T09:35:28.515Z,77.83
2022-12-19T09:38:00.292Z,78.33
2022-12-19T09:40:28.872Z,78.76
2022-12-19T09:43:09.569Z,78.87
2022-12-19T09:45:52.824Z,78.35
2022-12-19T09:48:24.004Z,77.76
2022-12-19T09:51:09.381Z,78.53
2022-12-19T09:53:56.104Z,77.72
2022-12-19T09:56:23.773Z,78.26
2022-12-19T09:58:54.251Z,77.59
2022-12-19T10:01:24.437Z,75.81
2022-12-19T10:04:03.436Z,76.28
2022-12-19T10:07:20.360Z,76.14
2022-12-19T10:11:16.375Z,76.30
2022-12-19T10:12:50.814Z,75.06
2022-12-19T10:15:25.991Z,75.95
2022-12-19T10:17:59.918Z,75.44
2022-12-19T10:20:38.721Z,75.15
2022-12-19T10:23:18.581Z,75.07
2022-12-19T10:25:59.087Z,73.38
2022-12-19T10:28:39.130Z,73.36
2022-12-19T10:31:21.520Z,74.32
2022-12-19T10:33:58.255Z,72.90
2022-12-19T10:36:48.666Z,72.75
2022-12-19T10:39:25.790Z,74.18
2022-12-19T10:41:56.643Z,72.94
2022-12-19T10:44:29.696Z,72.99
2022-12-19T10:46:56.162Z,73.82
2022-12-19T10:49:25.170Z,73.86
2022-12-19T10:52:02.529Z,73.83
2022-12-19T10:54:38.519Z,72.36
2022-12-19T10:57:24.311Z,71.37
2022-12-19T10:59:54.847Z,74.00
2022-12-19T11:02:44.612Z,74.29
2022-12-19T11:05:33.149Z,72.90
2022-12-19T11:07:59.568Z,73.83
2022-12-19T11:12:01.922Z,73.72
2022-12-19T11:19:13.301Z,73.92
2022-12-19T11:25:14.723Z,75.45
2022-12-19T11:29:26.508Z,78.41
2022-12-19T11:29:32.462Z,79.36
2022-12-19T11:29:54.647Z,79.16
2022-12-19T11:30:46.257Z,80.38
2022-12-19T11:31:51.264Z,80.35
2022-12-19T11:33:10.432Z,81.90
2022-12-19T11:35:48.045Z,81.51
2022-12-19T11:38:41.064Z,81.67
2022-12-19T11:41:13.111Z,83.84
2022-12-19T11:43:58.999Z,84.25
2022-12-19T11:46:45.175Z,86.37
2022-12-19T11:49:11.762Z,87.57
2022-12-19T11:51:57.608Z,87.28
2022-12-19T11:54:33.108Z,88.35
2022-12-19T11:56:59.889Z,89.73
2022-12-19T11:59:36.309Z,90.47
2022-12-19T12:02:08.947Z,91.42
2022-12-19T12:04:35.503Z,89.88
2022-12-19T12:07:06.635Z,91.79
2022-12-19T12:13:09.954Z,93.09
2022-12-19T12:19:40.597Z,95.76
2022-12-19T12:30:18.985Z,96.52
2022-12-19T12:31:31.685Z,97.81
2022-12-19T12:31:40.239Z,100.00
2022-12-19T12:31:47.723Z,100.00
2022-12-19T12:35:51.829Z,100.00
2022-12-19T12:44:07.926Z,100.00
2022-12-19T12:46:42.014Z,100.00
2022-12-19T12:49:20.834Z,100.00
2022-12-19T12:51:47.787Z,100.00
2022-12-19T12:54:15.270Z,100.00
2022-12-19T12:57:06.629Z,100.00
2022-12-19T12:59:35.885Z,100.00
2022-12-19T13:02:40.208Z,100.00
2022-12-19T13:05:35.701Z,100.00
2022-12-19T13:08:02.372Z,100.00
2022-12-19T13:16:48.812Z,100.00
2022-12-19T13:19:27.886Z,100.00
2022-12-19T13:22:18.298Z,100.00
2022-12-19T13:24:44.848Z,100.00
2022-12-19T13:27:20.099Z,100.00
2022-12-19T13:30:20.733Z,100.00
2022-12-19T13:32:51.668Z,100.00
2022-12-19T13:39:50.173Z,100.00
2022-12-19T13:44:40.133Z,100.00
2022-12-19T13:47:21.978Z,100.00
2022-12-19T13:49:50.864Z,100.00
2022-12-19T14:02:20.204Z,100.00
2022-12-19T14:04:50.139Z,100.00
2022-12-19T14:28:21.001Z,100.00
2022-12-19T14:28:40.345Z,100.00
2022-12-19T14:53:33.959Z,100.00
2022-12-19T14:58:51.374Z,100.00
2022-12-19T15:01:07.969Z,100.00
2022-12-19T15:03:30.388Z,100.00
2022-12-19T15:07:06.813Z,100.00
2022-12-19T15:11:00.432Z,100.00
2022-12-19T15:14:57.778Z,100.00
2022-12-19T15:15:52.578Z,100.00
2022-12-19T15:18:27.035Z,100.00
2022-12-19T15:21:16.127Z,100.00
2022-12-19T15:37:26.569Z,100.00
2022-12-19T15:39:53.300Z,100.00
2022-12-19T15:42:56.025Z,100.00
2022-12-19T15:45:25.655Z,100.00
2022-12-19T15:51:35.700Z,100.00
2022-12-19T15:54:30.151Z,100.00
2022-12-19T15:56:51.532Z,100.00
2022-12-19T15:59:26.660Z,100.00
2022-12-19T16:01:56.280Z,100.00
2022-12-19T16:04:23.886Z,100.00
2022-12-19T16:06:50.580Z,100.00
2022-12-19T16:09:27.208Z,100.00
2022-12-19T16:11:58.155Z,100.00
2022-12-19T16:14:25.228Z,100.00
2022-12-19T16:25:55.829Z,100.00
2022-12-19T16:28:34.261Z,100.00
2022-12-19T16:31:13.803Z,100.00
2022-12-19T16:33:40.373Z,100.00
2022-12-19T16:36:07.579Z,100.00
2022-12-19T16:38:34.796Z,100.00
2022-12-19T16:41:01.847Z,100.00
2022-12-19T16:43:32.258Z,100.00
2022-12-19T16:46:01.608Z,100.00
2022-12-19T16:48:30.241Z,100.00
2022-12-19T16:50:57.898Z,100.00
2022-12-19T16:53:27.495Z,100.00
2022-12-19T16:55:55.717Z,100.00
2022-12-19T16:58:24.507Z,100.00
2022-12-19T17:00:52.664Z,100.00
2022-12-19T17:03:28.495Z,100.00
2022-12-19T17:05:55.431Z,100.00
2022-12-19T17:08:23.775Z,100.00
2022-12-19T17:10:53.526Z,100.00
2022-12-19T17:13:21.190Z,100.00
2022-12-19T17:15:54.316Z,100.00
2022-12-19T17:22:20.014Z,100.00
2022-12-19T17:24:47.499Z,100.00
2022-12-19T17:27:18.526Z,100.00
2022-12-19T17:29:47.289Z,100.00
2022-12-19T17:32:23.599Z,100.00
2022-12-19T17:34:56.188Z,100.00
2022-12-19T17:37:36.029Z,100.00
2022-12-19T17:40:04.152Z,100.00
2022-12-19T17:42:37.034Z,100.00
2022-12-19T17:45:08.111Z,100.00
2022-12-19T17:47:43.677Z,100.00
2022-12-19T17:50:23.782Z,100.00
2022-12-19T17:52:53.627Z,100.00
2022-12-19T17:55:25.088Z,100.00
2022-12-19T17:57:54.235Z,100.00
2022-12-19T18:00:28.417Z,100.00
2022-12-19T18:03:06.420Z,100.00
2022-12-19T18:05:35.401Z,100.00
2022-12-19T18:08:02.154Z,100.00
2022-12-19T18:10:30.342Z,100.00
2022-12-19T18:12:57.308Z,100.00
2022-12-19T18:15:27.559Z,100.00
2022-12-19T18:17:56.472Z,100.00
2022-12-19T18:20:29.417Z,100.00
2022-12-19T18:22:59.758Z,100.00
2022-12-19T18:25:27.823Z,100.00
2022-12-19T18:28:04.232Z,100.00
2022-12-19T18:30:30.671Z,100.00
2022-12-19T18:32:59.658Z,100.00
2022-12-19T18:35:34.975Z,100.00
2022-12-19T18:38:07.044Z,100.00
2022-12-19T18:40:34.810Z,100.00
2022-12-19T18:43:01.424Z,100.00
2022-12-19T18:45:54.019Z,100.00
2022-12-19T18:48:27.802Z,100.00
2022-12-19T18:50:55.056Z,100.00
2022-12-19T18:53:37.216Z,100.00
2022-12-19T18:56:05.539Z,100.00
2022-12-19T18:58:32.833Z,100.00
2022-12-19T19:01:04.989Z,100.00
2022-12-19T19:03:41.574Z,100.00
2022-12-19T19:06:18.728Z,100.00
2022-12-19T19:08:49.972Z,100.00
2022-12-19T19:11:23.624Z,100.00
2022-12-19T19:13:58.053Z,100.00
2022-12-19T19:16:25.766Z,100.00
2022-12-19T19:21:56.843Z,100.00
2022-12-19T19:24:28.200Z,100.00
2022-12-19T19:27:03.647Z,100.00
2022-12-19T19:29:38.459Z,100.00
2022-12-19T19:32:05.400Z,100.00
2022-12-19T19:34:34.545Z,100.00
2022-12-19T19:40:24.960Z,100.00
2022-12-19T19:43:23.251Z,100.00
2022-12-19T19:45:50.500Z,100.00
2022-12-19T19:48:24.377Z,100.00
2022-12-19T19:54:30.513Z,100.00
2022-12-19T19:57:00.412Z,100.00
2022-12-19T20:26:27.151Z,100.00
2022-12-19T20:29:26.408Z,100.00
2022-12-19T20:32:15.084Z,100.00
2022-12-19T20:41:10.405Z,100.00
2022-12-19T20:44:24.133Z,100.00
2022-12-19T20:46:57.710Z,100.00
2022-12-19T20:49:35.112Z,100.00
2022-12-19T20:59:05.276Z,100.00
2022-12-19T21:01:39.066Z,100.00
2022-12-19T21:04:14.598Z,100.00
2022-12-19T21:10:06.103Z,100.00
2022-12-19T21:12:32.624Z,100.00
2022-12-19T21:15:10.505Z,100.00
2022-12-19T21:17:44.563Z,100.00
2022-12-19T21:20:34.352Z,100.00
2022-12-19T21:27:14.498Z,100.00
2022-12-19T21:39:37.916Z,100.00
2022-12-19T21:48:39.250Z,100.00
2022-12-19T21:51:06.321Z,100.00
2022-12-19T21:53:39.580Z,100.00
2022-12-19T21:59:09.926Z,100.00
2022-12-19T22:01:36.620Z,100.00
2022-12-19T22:04:06.344Z,100.00
2022-12-19T22:06:35.504Z,100.00
2022-12-19T22:09:03.958Z,100.00
2022-12-19T22:11:31.329Z,100.00
2022-12-19T22:14:01.595Z,100.00
2022-12-19T22:16:41.950Z,100.00
2022-12-19T22:19:20.078Z,100.00
2022-12-19T22:21:56.445Z,100.00
2022-12-19T22:24:29.304Z,100.00
2022-12-19T22:30:37.732Z,100.00
2022-12-19T22:33:04.144Z,100.00
2022-12-19T22:35:34.396Z,100.00
2022-12-19T22:38:00.770Z,100.00
2022-12-19T22:40:38.769Z,100.00
2022-12-19T22:43:05.491Z,100.00
2022-12-19T22:48:38.404Z,100.00
2022-12-19T22:51:05.548Z,100.00
2022-12-19T22:53:41.952Z,100.00
2022-12-19T22:56:13.370Z,100.00
2022-12-19T22:58:53.628Z,100.00
2022-12-19T23:01:52.541Z,100.00
2022-12-19T23:04:20.482Z,100.00
2022-12-19T23:06:48.760Z,100.00
2022-12-19T23:09:21.096Z,100.00
2022-12-19T23:11:48.941Z,100.00
2022-12-19T23:14:18.807Z,100.00
2022-12-19T23:16:53.637Z,100.00
2022-12-19T23:19:20.346Z,100.00
2022-12-19T23:21:47.054Z,100.00
2022-12-19T23:24:13.657Z,100.00
2022-12-19T23:26:40.393Z,100.00
2022-12-19T23:29:08.619Z,100.00
2022-12-19T23:31:35.266Z,100.00
2022-12-19T23:34:05.198Z,100.00
2022-12-19T23:37:08.957Z,100.00
2022-12-19T23:39:18.253Z,100.00
2022-12-19T23:41:44.916Z,100.00
2022-12-19T23:44:17.878Z,100.00
2022-12-19T23:46:44.388Z,100.00
2022-12-19T23:49:11.013Z,100.00
2022-12-19T23:51:37.638Z,100.00
2022-12-19T23:54:09.018Z,100.00
2022-12-19T23:56:53.834Z,100.00
2022-12-19T23:59:20.943Z,100.00
